This is the latest recevied weather packets stored in our database for station/object JO1YDG-13. If no packets are shown the sender has not sent any weather packets the latest 10 day(s).
| Time | Temp. | Humidity | Pressure | Rain* | Wind** | Luminosity | Snow |
|---|---|---|---|---|---|---|---|
| 1777172077 | 22.22° C | 40% | 989 hPa | 0 mm | - | - | - |
| 1777171777 | 21.67° C | 41% | 989.4 hPa | 0 mm | - | - | - |
| 1777171476 | 22.78° C | 39% | 989.4 hPa | 0 mm | - | - | - |
| 1777171176 | 21.67° C | 42% | 989.4 hPa | 0 mm | - | - | - |
| 1777170878 | 21.67° C | 41% | 989.7 hPa | 0 mm | - | - | - |
| 1777170578 | 22.22° C | 41% | 989.7 hPa | 0 mm | - | - | - |
| 1777170277 | 21.67° C | 45% | 990 hPa | 0 mm | - | - | - |
| 1777169977 | 21.11° C | 44% | 990 hPa | 0 mm | - | - | - |
| 1777169677 | 21.67° C | 43% | 990.4 hPa | 0 mm | - | - | - |
| 1777169377 | 22.78° C | 41% | 990.4 hPa | 0 mm | - | - | - |
| 1777169076 | 21.67° C | 43% | 990.4 hPa | 0 mm | - | - | - |
| 1777168776 | 21.11° C | 43% | 990.8 hPa | 0 mm | - | - | - |
| 1777168478 | 21.11° C | 43% | 990.8 hPa | 0 mm | - | - | - |
| 1777168178 | 21.67° C | 43% | 991 hPa | 0 mm | - | - | - |
| 1777167877 | 21.11° C | 44% | 991 hPa | 0 mm | - | - | - |
| 1777167577 | 21.11° C | 45% | 991 hPa | 0 mm | - | - | - |
| 1777167277 | 20° C | 44% | 991.4 hPa | 0 mm | - | - | - |
| 1777166977 | 20.56° C | 45% | 991.4 hPa | 0 mm | - | - | - |
| 1777166677 | 20° C | 46% | 991.7 hPa | 0 mm | - | - | - |
| 1777166377 | 20.56° C | 44% | 991.7 hPa | 0 mm | - | - | - |
| 1777166076 | 20.56° C | 45% | 991.9 hPa | 0 mm | - | - | - |
| 1777165776 | 19.44° C | 46% | 991.9 hPa | 0 mm | - | - | - |
| 1777165478 | 19.44° C | 47% | 991.9 hPa | 0 mm | - | - | - |
| 1777165178 | 19.44° C | 47% | 992.1 hPa | 0 mm | - | - | - |
| 1777164877 | 20° C | 45% | 992.1 hPa | 0 mm | - | - | - |
* Rain latest hour (hover to see other rain measurements)
** Current wind speed in m/s (hover to see current wind gust speed)